Time;durP1;ratioP1;P1;durP2;ratioP2;P2;SDS_P1;SDS_P2;PMS_P1;PMS_P2;Temp;Humidity;BMP_temperature;BMP_pressure;BME280_temperature;BME280_humidity;BME280_pressure;Samples;Min_cycle;Max_cycle;Signal;HPM_P1;HPM_P2
2023/03/09 00:00:21;;;;;;;7.63;2.33;;;;;;;11.19;90.17;98987.22;4920542;29;20051;-62
2023/03/09 00:02:49;;;;;;;9.82;2.22;;;;;;;11.08;90.39;98993.66;4921517;29;20063;-62
2023/03/09 00:05:16;;;;;;;7.13;1.65;;;;;;;11.24;90.10;99003.50;4922255;29;20056;-62
2023/03/09 00:07:44;;;;;;;8.45;1.92;;;;;;;11.28;88.89;98998.06;4921584;29;20056;-61
2023/03/09 00:10:12;;;;;;;10.20;1.90;;;;;;;11.25;88.46;99010.63;4922359;29;20048;-62
2023/03/09 00:12:40;;;;;;;15.48;2.63;;;;;;;11.27;89.53;99011.06;4921379;29;20063;-63
2023/03/09 00:15:10;;;;;;;10.00;2.10;;;;;;;11.23;88.24;99023.13;4922773;29;20056;-63
2023/03/09 00:17:37;;;;;;;10.38;2.20;;;;;;;11.24;89.35;99027.50;4920948;29;20079;-61
2023/03/09 00:20:17;;;;;;;12.13;2.28;;;;;;;11.65;88.17;99028.84;4925031;29;20059;-62
2023/03/09 00:22:49;;;;;;;10.25;2.38;;;;;;;11.21;86.57;99034.53;4938215;29;20059;-62
2023/03/09 00:25:18;;;;;;;13.07;2.28;;;;;;;11.11;87.30;99043.34;4915330;29;20071;-66
2023/03/09 00:27:50;;;;;;;13.05;2.10;;;;;;;11.08;88.10;99043.25;4921282;29;20515;-62
2023/03/09 00:30:18;;;;;;;9.25;1.90;;;;;;;11.15;88.19;99048.94;4922046;29;20063;-60
2023/03/09 00:32:46;;;;;;;9.82;2.15;;;;;;;11.01;88.29;99043.91;4912939;29;20078;-61
2023/03/09 00:35:13;;;;;;;11.23;2.35;;;;;;;11.19;87.21;99060.88;4938432;29;20054;-62
2023/03/09 00:37:41;;;;;;;9.45;2.25;;;;;;;11.12;88.22;99052.44;4921025;29;20062;-62
2023/03/09 00:40:10;;;;;;;10.18;2.40;;;;;;;11.21;86.90;99062.09;4939532;29;20056;-62
2023/03/09 00:42:38;;;;;;;12.00;2.38;;;;;;;11.21;85.91;99061.28;4939900;29;20058;-62
2023/03/09 00:45:07;;;;;;;12.57;2.42;;;;;;;11.38;85.94;99061.69;4930173;29;20110;-62
2023/03/09 00:47:34;;;;;;;10.32;2.10;;;;;;;11.55;85.62;99060.53;4903626;29;20052;-62
2023/03/09 00:50:01;;;;;;;11.65;2.17;;;;;;;11.37;84.49;99069.56;4917639;29;20052;-62
2023/03/09 00:52:29;;;;;;;8.60;1.60;;;;;;;11.06;85.43;99073.94;4920395;29;20071;-61
2023/03/09 00:54:57;;;;;;;10.02;2.05;;;;;;;11.25;85.08;99070.44;4928158;29;20052;-61
2023/03/09 00:57:25;;;;;;;11.18;2.47;;;;;;;11.35;85.21;99067.94;4919950;29;20060;-61
2023/03/09 00:59:53;;;;;;;7.28;1.65;;;;;;;11.19;84.94;99080.94;4912906;29;20041;-61
2023/03/09 01:02:22;;;;;;;8.98;1.90;;;;;;;11.15;85.88;99085.56;4888453;29;20052;-63
2023/03/09 01:04:50;;;;;;;8.98;1.85;;;;;;;11.24;84.96;99086.16;4921299;29;20056;-63
2023/03/09 01:07:18;;;;;;;10.27;1.65;;;;;;;10.96;85.43;99088.25;4919947;29;20052;-61
2023/03/09 01:09:45;;;;;;;8.80;2.10;;;;;;;11.29;85.70;99093.38;4920752;29;20064;-61
2023/03/09 01:12:13;;;;;;;9.75;2.05;;;;;;;11.27;86.69;99095.69;4918271;29;20054;-61
2023/03/09 01:14:41;;;;;;;11.00;2.22;;;;;;;11.06;85.21;99111.69;4928649;29;20129;-62
2023/03/09 01:17:10;;;;;;;16.75;2.35;;;;;;;10.88;86.48;99102.97;4917897;29;20047;-61
2023/03/09 01:19:38;;;;;;;9.50;1.75;;;;;;;10.84;86.16;99104.06;4920838;29;20044;-61
2023/03/09 01:22:05;;;;;;;9.02;2.15;;;;;;;10.76;86.77;99110.50;4933169;29;20514;-62
2023/03/09 01:24:33;;;;;;;16.77;2.33;;;;;;;10.88;86.31;99107.72;4939716;29;20467;-64
2023/03/09 01:27:00;;;;;;;10.20;2.15;;;;;;;10.92;86.53;99116.84;4919612;29;20052;-66
2023/03/09 01:29:28;;;;;;;10.50;1.80;;;;;;;10.84;86.61;99115.88;4917994;29;20055;-67
2023/03/09 01:31:55;;;;;;;14.07;2.25;;;;;;;10.95;86.27;99114.19;4928328;29;20063;-67
2023/03/09 01:34:22;;;;;;;13.30;2.15;;;;;;;11.16;85.40;99131.25;4920379;29;20086;-62
2023/03/09 01:36:50;;;;;;;13.18;2.35;;;;;;;10.85;86.10;99139.50;4910417;29;20047;-67
2023/03/09 01:39:17;;;;;;;11.73;2.08;;;;;;;10.88;85.72;99144.31;4921034;29;20056;-62
2023/03/09 01:41:45;;;;;;;14.85;2.40;;;;;;;11.10;85.72;99148.41;4917622;29;20056;-62
2023/03/09 01:44:13;;;;;;;12.63;2.10;;;;;;;11.04;84.44;99136.03;4928530;29;20076;-62
2023/03/09 01:46:47;;;;;;;13.10;2.00;;;;;;;11.02;85.32;99141.91;4919102;29;20051;-62
2023/03/09 01:49:38;;;;;;;16.10;2.45;;;;;;;11.06;85.35;99145.56;4919316;29;20052;-67
2023/03/09 01:52:19;;;;;;;10.13;2.47;;;;;;;11.08;85.30;99153.47;4930920;29;20051;-66
2023/03/09 01:54:58;;;;;;;11.00;2.33;;;;;;;11.30;84.11;99156.41;4935289;29;20055;-61
2023/03/09 01:57:44;;;;;;;15.95;2.75;;;;;;;11.20;85.17;99156.16;4903976;29;20056;-61
2023/03/09 02:00:16;;;;;;;14.77;2.47;;;;;;;11.11;84.17;99161.84;4918421;29;20052;-61
2023/03/09 02:02:57;;;;;;;14.07;2.63;;;;;;;11.45;83.04;99149.31;4917630;29;20522;-67
2023/03/09 02:05:44;;;;;;;12.93;2.50;;;;;;;11.27;83.26;99153.56;4918435;29;20055;-62
2023/03/09 02:08:14;;;;;;;;;;;;;;;11.15;84.42;99165.50;4901091;29;20060;-67
2023/03/09 02:10:57;;;;;;;16.55;2.72;;;;;;;11.30;83.62;99163.88;4903734;29;19923;-67
2023/03/09 02:13:38;;;;;;;12.95;2.53;;;;;;;11.16;84.09;99172.59;4925297;29;20472;-62
2023/03/09 02:16:06;;;;;;;14.90;2.90;;;;;;;11.13;85.43;99162.28;4918908;29;20044;-61
2023/03/09 02:18:34;;;;;;;16.10;2.75;;;;;;;11.04;85.58;99178.19;4920103;29;20052;-66
2023/03/09 02:21:14;;;;;;;13.02;2.42;;;;;;;11.21;86.33;99172.31;4906473;29;20064;-66
2023/03/09 02:23:47;;;;;;;12.95;2.35;;;;;;;11.28;85.21;99185.47;4938632;29;20424;-68
2023/03/09 02:26:21;;;;;;;16.23;3.17;;;;;;;11.21;85.66;99177.84;4929204;29;20465;-62
2023/03/09 02:28:49;;;;;;;14.52;2.60;;;;;;;11.47;86.27;99182.84;4911154;29;20045;-63
2023/03/09 02:31:19;;;;;;;17.02;2.78;;;;;;;11.49;85.06;99191.53;4916461;29;20059;-66
2023/03/09 02:33:46;;;;;;;12.35;2.75;;;;;;;11.33;85.48;99188.00;4928769;29;20056;-66
2023/03/09 02:36:14;;;;;;;17.48;3.22;;;;;;;11.49;85.64;99190.75;4918449;29;20511;-66
2023/03/09 02:38:45;;;;;;;19.20;2.65;;;;;;;11.46;86.06;99186.75;4918402;29;20052;-66
2023/03/09 02:41:12;;;;;;;19.92;3.05;;;;;;;11.53;85.55;99186.09;4897718;29;20048;-66
2023/03/09 02:43:47;;;;;;;15.02;2.78;;;;;;;11.48;85.90;99206.50;4899220;29;20055;-67
2023/03/09 02:46:15;;;;;;;15.02;2.88;;;;;;;11.46;85.29;99205.22;4925176;29;20379;-66
2023/03/09 02:48:43;;;;;;;16.38;2.75;;;;;;;11.39;84.95;99205.84;4936633;29;20047;-62
2023/03/09 02:51:11;;;;;;;16.85;2.70;;;;;;;11.31;85.11;99207.63;4932459;29;20052;-62
2023/03/09 02:53:40;;;;;;;19.92;3.28;;;;;;;11.11;85.96;99203.16;4934783;29;20056;-66
2023/03/09 02:56:08;;;;;;;15.52;2.45;;;;;;;11.25;86.08;99202.75;4934483;29;20411;-67
2023/03/09 02:58:35;;;;;;;23.40;3.22;;;;;;;11.27;85.92;99200.44;4938914;29;20052;-67
2023/03/09 03:01:03;;;;;;;16.30;2.95;;;;;;;11.43;86.15;99203.19;4916752;29;20051;-66
2023/03/09 03:03:31;;;;;;;18.02;3.33;;;;;;;11.35;85.13;99207.72;4927877;29;20052;-66
2023/03/09 03:05:58;;;;;;;19.92;2.97;;;;;;;11.34;86.37;99206.94;4905671;29;20048;-66
2023/03/09 03:08:26;;;;;;;18.23;3.00;;;;;;;11.41;86.63;99214.56;4903415;29;20512;-67
2023/03/09 03:11:05;;;;;;;18.60;2.83;;;;;;;11.26;85.46;99213.41;4901015;29;20055;-67
2023/03/09 03:13:34;;;;;;;22.50;3.53;;;;;;;11.26;85.74;99215.38;4903104;29;20055;-66
2023/03/09 03:16:02;;;;;;;21.00;2.97;;;;;;;11.41;85.34;99227.56;4900923;29;20688;-62
2023/03/09 03:18:30;;;;;;;17.48;2.72;;;;;;;11.41;85.56;99233.88;4920041;29;20060;-67
2023/03/09 03:20:58;;;;;;;22.40;3.65;;;;;;;11.46;85.73;99221.78;4916353;29;20060;-67
2023/03/09 03:23:26;;;;;;;15.48;2.97;;;;;;;11.59;86.02;99229.63;4902780;29;20048;-67
2023/03/09 03:25:55;;;;;;;23.40;4.13;;;;;;;11.44;85.44;99238.69;4907398;29;20051;-66
2023/03/09 03:28:24;;;;;;;22.90;3.40;;;;;;;11.63;85.43;99241.53;4921676;29;20288;-67
2023/03/09 03:30:58;;;;;;;19.00;3.45;;;;;;;11.56;85.82;99235.81;4934396;29;20048;-67
2023/03/09 03:33:27;;;;;;;22.00;3.17;;;;;;;11.59;85.50;99248.13;4920249;29;20048;-67
2023/03/09 03:35:57;;;;;;;21.23;3.38;;;;;;;11.82;85.28;99238.09;4894789;29;20048;-62
2023/03/09 03:38:25;;;;;;;18.17;3.50;;;;;;;11.68;84.50;99249.56;4897812;29;20059;-62
2023/03/09 03:40:53;;;;;;;29.15;3.60;;;;;;;11.74;85.71;99237.13;4917886;29;20052;-62
2023/03/09 03:43:21;;;;;;;30.58;3.85;;;;;;;11.85;85.56;99235.44;4921791;29;20056;-66
2023/03/09 03:45:51;;;;;;;24.08;4.32;;;;;;;11.79;85.45;99247.06;4920523;29;20511;-68
2023/03/09 03:48:22;;;;;;;23.42;3.60;;;;;;;11.81;86.02;99251.09;4906961;29;20056;-62
2023/03/09 03:50:50;;;;;;;26.10;3.28;;;;;;;11.70;87.09;99249.22;4907146;29;20059;-63
2023/03/09 03:53:19;;;;;;;13.20;3.22;;;;;;;11.70;86.99;99257.50;4921106;29;20044;-61
2023/03/09 03:55:47;;;;;;;23.30;3.53;;;;;;;11.68;87.13;99259.81;4903028;29;20051;-62
2023/03/09 03:58:14;;;;;;;21.85;3.70;;;;;;;11.50;87.44;99267.59;4917500;29;20044;-62
2023/03/09 04:00:43;;;;;;;19.02;3.47;;;;;;;11.62;87.69;99264.75;4900894;29;20109;-63
2023/03/09 04:03:14;;;;;;;21.60;3.30;;;;;;;11.70;87.07;99274.06;4940248;29;20067;-61
2023/03/09 04:05:45;;;;;;;15.75;3.30;;;;;;;11.56;87.25;99273.66;4939890;29;20054;-62
2023/03/09 04:08:15;;;;;;;26.85;4.00;;;;;;;11.72;86.96;99282.75;4940172;29;20063;-62
2023/03/09 04:10:44;;;;;;;23.38;4.03;;;;;;;11.81;85.73;99275.91;4939898;29;20051;-62
2023/03/09 04:13:14;;;;;;;;;;;;;;;11.84;85.42;99279.91;4924497;29;20051;-63
2023/03/09 04:15:42;;;;;;;23.55;3.50;;;;;;;12.01;84.09;99276.78;4939260;29;19934;-62
2023/03/09 04:18:10;;;;;;;26.98;3.92;;;;;;;11.80;84.70;99279.81;4941318;29;20051;-66
2023/03/09 04:20:39;;;;;;;27.73;4.35;;;;;;;11.78;84.78;99275.81;4922357;29;20055;-66
2023/03/09 04:23:07;;;;;;;22.17;4.00;;;;;;;11.79;84.77;99280.97;4939543;29;20056;-66
2023/03/09 04:25:38;;;;;;;21.65;4.05;;;;;;;11.98;84.72;99283.00;4921838;29;20098;-63
2023/03/09 04:28:05;;;;;;;23.90;3.78;;;;;;;11.94;84.54;99288.44;4921459;29;20060;-63
2023/03/09 04:30:39;;;;;;;23.13;4.50;;;;;;;12.02;84.44;99290.22;4918651;29;20044;-63
2023/03/09 04:33:10;;;;;;;22.85;4.30;;;;;;;12.08;84.13;99294.31;4906461;29;20067;-62
2023/03/09 04:35:38;;;;;;;26.65;5.25;;;;;;;11.83;84.83;99294.88;4918834;29;20052;-68
2023/03/09 04:38:12;;;;;;;27.25;5.28;;;;;;;11.94;84.95;99293.97;4904709;29;20052;-68
2023/03/09 04:40:41;;;;;;;30.38;4.18;;;;;;;11.91;84.84;99296.63;4919189;29;20047;-67
2023/03/09 04:43:08;;;;;;;28.75;4.47;;;;;;;12.11;85.05;99288.09;4920208;29;20056;-68
2023/03/09 04:45:36;;;;;;;25.05;4.35;;;;;;;11.89;84.75;99299.75;4922032;29;20059;-71
2023/03/09 04:48:04;;;;;;;33.15;4.78;;;;;;;11.78;86.41;99301.47;4922884;29;20056;-67
2023/03/09 04:50:31;;;;;;;23.95;4.07;;;;;;;11.89;86.63;99310.00;4922361;29;20079;-68
2023/03/09 04:53:02;;;;;;;28.55;4.22;;;;;;;11.73;86.49;99307.25;4939963;29;20141;-68
2023/03/09 04:55:33;;;;;;;;;;;;;;;11.75;86.30;99315.94;4934232;29;20059;-68
2023/03/09 04:58:02;;;;;;;29.83;4.63;;;;;;;11.70;86.43;99312.66;4911393;29;19927;-68
2023/03/09 05:00:32;;;;;;;32.40;4.13;;;;;;;11.72;86.72;99308.38;4918640;29;20055;-68
2023/03/09 05:03:02;;;;;;;28.15;4.53;;;;;;;11.86;86.15;99308.75;4903275;29;20048;-67
2023/03/09 05:05:30;;;;;;;20.73;3.05;;;;;;;11.99;86.15;99314.97;4918245;29;20060;-67
2023/03/09 05:07:59;;;;;;;25.88;4.65;;;;;;;11.90;86.23;99317.91;4918915;29;20056;-64
2023/03/09 05:10:26;;;;;;;23.52;4.05;;;;;;;12.34;84.31;99318.59;4917953;29;20052;-63
2023/03/09 05:12:57;;;;;;;23.70;3.45;;;;;;;12.04;84.46;99331.28;4919432;29;20052;-69
2023/03/09 05:15:27;;;;;;;29.58;4.75;;;;;;;11.95;85.80;99333.41;4916498;29;20538;-63
2023/03/09 05:17:56;;;;;;;30.55;5.22;;;;;;;11.74;86.94;99341.13;4899505;29;20063;-62
2023/03/09 05:20:26;;;;;;;24.60;3.88;;;;;;;11.87;86.50;99332.41;4901144;29;20064;-63
2023/03/09 05:23:03;;;;;;;25.33;4.18;;;;;;;11.91;86.38;99343.53;4919672;29;20063;-63
2023/03/09 05:25:31;;;;;;;27.77;4.65;;;;;;;12.00;86.15;99335.88;4918789;29;20067;-62
2023/03/09 05:28:00;;;;;;;32.67;4.38;;;;;;;11.86;86.73;99335.53;4920192;29;20376;-62
2023/03/09 05:30:31;;;;;;;23.67;3.80;;;;;;;11.77;87.07;99332.94;4918100;29;20079;-63
2023/03/09 05:33:02;;;;;;;26.52;3.63;;;;;;;11.73;87.13;99331.25;4917889;29;20052;-63
2023/03/09 05:35:32;;;;;;;25.25;3.95;;;;;;;11.71;87.17;99342.66;4916742;29;20071;-63
2023/03/09 05:38:01;;;;;;;29.48;4.20;;;;;;;11.55;88.21;99349.25;4917829;29;20669;-71
2023/03/09 05:40:29;;;;;;;24.48;4.05;;;;;;;11.65;88.68;99337.72;4919287;29;20048;-70
2023/03/09 05:43:00;;;;;;;19.73;3.70;;;;;;;12.01;87.24;99330.00;4915997;29;20071;-70
2023/03/09 05:45:29;;;;;;;26.13;3.63;;;;;;;11.81;87.39;99338.56;4918492;29;20052;-63
2023/03/09 05:47:56;;;;;;;31.95;4.90;;;;;;;11.66;88.07;99340.16;4919853;29;20044;-69
2023/03/09 05:50:24;;;;;;;27.20;4.80;;;;;;;11.69;88.50;99344.16;4914958;29;20075;-64
2023/03/09 05:52:51;;;;;;;22.58;3.88;;;;;;;11.88;88.12;99349.78;4917694;29;20051;-63
2023/03/09 05:55:21;;;;;;;20.35;3.55;;;;;;;11.92;86.86;99340.44;4902065;29;20480;-63
2023/03/09 05:57:49;;;;;;;19.35;3.58;;;;;;;11.90;86.85;99351.03;4912067;29;20055;-63
2023/03/09 06:00:18;;;;;;;25.08;3.85;;;;;;;11.68;87.94;99357.13;4884167;29;20378;-64
2023/03/09 06:02:54;;;;;;;26.52;3.85;;;;;;;12.14;86.25;99358.31;4917307;29;20059;-63
2023/03/09 06:05:28;;;;;;;25.33;4.07;;;;;;;11.87;86.83;99367.50;4916760;29;20512;-63
2023/03/09 06:07:56;;;;;;;24.25;3.80;;;;;;;11.63;88.01;99373.13;4928566;29;20079;-63
2023/03/09 06:10:23;;;;;;;21.40;3.50;;;;;;;11.74;88.58;99357.69;4902408;29;20051;-63
2023/03/09 06:12:51;;;;;;;20.23;4.43;;;;;;;11.64;89.32;99363.69;4918819;29;20056;-63
2023/03/09 06:15:20;;;;;;;18.30;3.42;;;;;;;11.94;88.49;99360.19;4918583;29;20060;-63
2023/03/09 06:17:48;;;;;;;20.10;3.40;;;;;;;11.91;88.12;99362.84;4911209;29;20048;-61
2023/03/09 06:20:20;;;;;;;19.02;3.60;;;;;;;11.60;89.81;99374.63;4901356;29;20067;-62
2023/03/09 06:22:50;;;;;;;13.27;2.88;;;;;;;11.63;89.79;99373.91;4921391;29;20385;-61
2023/03/09 06:25:18;;;;;;;18.27;3.10;;;;;;;11.39;90.25;99385.06;4933842;29;20052;-61
2023/03/09 06:27:46;;;;;;;16.08;3.00;;;;;;;11.81;89.81;99390.97;4901438;29;20052;-62
2023/03/09 06:30:17;;;;;;;15.70;3.45;;;;;;;11.65;88.54;99390.13;4915968;29;20527;-62
2023/03/09 06:32:48;;;;;;;16.77;3.45;;;;;;;11.91;89.24;99384.94;4915828;29;20048;-61
2023/03/09 06:35:15;;;;;;;18.25;3.50;;;;;;;11.78;88.77;99392.50;4919210;29;20079;-64
2023/03/09 06:37:43;;;;;;;18.10;3.78;;;;;;;11.76;89.17;99396.75;4917265;29;20052;-63
2023/03/09 06:40:12;;;;;;;19.70;3.03;;;;;;;11.84;89.10;99398.53;4902861;29;20055;-64
2023/03/09 06:42:40;;;;;;;23.42;3.70;;;;;;;12.01;88.92;99400.97;4917496;29;20048;-64
2023/03/09 06:45:09;;;;;;;27.67;4.78;;;;;;;12.15;87.84;99406.88;4917732;29;20055;-64
2023/03/09 06:47:36;;;;;;;19.95;3.53;;;;;;;12.03;87.55;99413.25;4916311;29;20051;-64
2023/03/09 06:50:08;;;;;;;20.52;4.65;;;;;;;11.92;87.94;99420.47;4918294;29;20052;-63
2023/03/09 06:52:38;;;;;;;27.65;5.85;;;;;;;12.14;88.02;99416.28;4901535;29;20052;-64
2023/03/09 06:55:06;;;;;;;34.15;10.50;;;;;;;12.10;87.64;99418.97;4932780;29;20066;-63
2023/03/09 06:57:51;;;;;;;34.90;11.93;;;;;;;12.13;87.20;99422.97;4892341;29;20648;-66
2023/03/09 07:00:20;;;;;;;36.58;12.05;;;;;;;12.29;87.00;99421.03;4916059;29;20056;-64
2023/03/09 07:02:52;;;;;;;33.53;6.82;;;;;;;12.49;86.25;99425.47;4916853;29;20052;-65
2023/03/09 07:05:20;;;;;;;25.95;5.53;;;;;;;12.43;85.24;99433.22;4900141;29;20051;-66
2023/03/09 07:07:48;;;;;;;33.47;6.85;;;;;;;12.59;84.96;99438.72;4917849;29;20064;-65
2023/03/09 07:10:15;;;;;;;27.13;5.80;;;;;;;12.40;85.32;99438.66;4920661;29;20052;-63
2023/03/09 07:12:43;;;;;;;31.40;6.40;;;;;;;12.44;84.93;99434.84;4921754;29;20055;-64
2023/03/09 07:15:11;;;;;;;28.23;6.00;;;;;;;12.66;84.86;99452.72;4919546;29;20048;-64
2023/03/09 07:17:38;;;;;;;25.25;5.28;;;;;;;12.56;84.57;99444.16;4917607;29;20063;-63
2023/03/09 07:20:07;;;;;;;34.72;6.05;;;;;;;12.32;85.64;99459.78;4919755;29;20060;-64
2023/03/09 07:22:34;;;;;;;35.95;6.20;;;;;;;12.52;85.17;99446.84;4921300;29;20059;-63
2023/03/09 07:25:02;;;;;;;35.67;6.78;;;;;;;12.51;85.37;99447.19;4923302;29;20052;-65
2023/03/09 07:27:33;;;;;;;34.17;5.55;;;;;;;12.51;84.97;99459.06;4904811;29;20051;-64
2023/03/09 07:30:00;;;;;;;30.50;5.47;;;;;;;12.92;83.60;99455.72;4920014;29;20063;-64
2023/03/09 07:32:27;;;;;;;28.52;5.28;;;;;;;12.74;82.89;99450.94;4928468;29;20051;-63
2023/03/09 07:34:55;;;;;;;30.17;5.78;;;;;;;12.73;83.83;99457.59;4931224;29;20060;-63
2023/03/09 07:37:22;;;;;;;33.40;7.38;;;;;;;12.76;83.85;99465.97;4932766;29;20063;-64
2023/03/09 07:39:50;;;;;;;37.40;6.40;;;;;;;12.80;83.53;99472.41;4935573;29;20059;-64
2023/03/09 07:42:17;;;;;;;31.27;5.90;;;;;;;12.88;82.96;99465.91;4921902;29;20055;-65
2023/03/09 07:45:14;;;;;;;38.30;6.18;;;;;;;12.50;84.27;99470.47;4904210;29;20051;-63
2023/03/09 07:47:42;;;;;;;35.50;6.63;;;;;;;12.41;84.74;99481.69;4899354;29;20063;-63
2023/03/09 07:50:10;;;;;;;33.83;6.32;;;;;;;12.68;84.32;99480.78;4914445;29;20052;-64
2023/03/09 07:52:37;;;;;;;39.35;11.15;;;;;;;13.09;85.05;99488.53;4912078;29;20052;-64
2023/03/09 07:55:07;;;;;;;33.72;7.53;;;;;;;13.33;82.15;99482.78;4916960;29;20055;-63
2023/03/09 07:57:35;;;;;;;31.85;6.07;;;;;;;13.48;80.26;99478.34;4919100;29;20054;-64
2023/03/09 08:00:10;;;;;;;30.75;6.00;;;;;;;13.66;78.65;99492.56;4921730;29;20078;-63
2023/03/09 08:02:41;;;;;;;28.88;5.43;;;;;;;13.94;77.02;99487.59;4919871;29;20044;-63
2023/03/09 08:05:10;;;;;;;29.40;5.25;;;;;;;13.88;76.87;99494.63;4920234;29;20048;-64
2023/03/09 08:07:37;;;;;;;34.95;6.13;;;;;;;14.13;77.22;99490.34;4901756;29;20048;-38
2023/03/09 08:10:06;;;;;;;34.63;6.25;;;;;;;14.07;75.19;99489.06;4904452;29;20676;-63
2023/03/09 08:12:33;;;;;;;30.50;5.80;;;;;;;13.72;77.40;99485.56;4902689;29;20079;-63
2023/03/09 08:15:01;;;;;;;34.38;6.22;;;;;;;13.55;78.27;99497.84;4918046;29;20048;-63
2023/03/09 08:17:28;;;;;;;36.17;5.95;;;;;;;13.64;78.02;99497.66;4918531;29;20068;-63
2023/03/09 08:19:56;;;;;;;30.58;5.90;;;;;;;13.48;79.63;99492.97;4919828;29;20056;-62
2023/03/09 08:22:23;;;;;;;34.08;6.00;;;;;;;13.30;79.79;99494.53;4917673;29;20060;-61
2023/03/09 08:24:51;;;;;;;30.08;5.32;;;;;;;13.51;79.03;99499.75;4921411;29;20416;-63
2023/03/09 08:27:18;;;;;;;30.90;5.50;;;;;;;13.41;79.73;99500.31;4919250;29;20055;-64
2023/03/09 08:29:46;;;;;;;40.42;8.65;;;;;;;13.44;79.07;99503.16;4921279;29;20064;-65
2023/03/09 08:32:14;;;;;;;23.13;5.30;;;;;;;13.13;80.28;99508.78;4914482;29;20043;-64
2023/03/09 08:34:41;;;;;;;36.75;5.72;;;;;;;13.36;80.56;99504.19;4917476;29;20495;-64
2023/03/09 08:37:09;;;;;;;30.50;6.50;;;;;;;13.57;79.49;99512.13;4922739;29;20051;-64
2023/03/09 08:39:36;;;;;;;40.67;5.75;;;;;;;13.69;78.28;99523.06;4921803;29;20060;-64
2023/03/09 08:42:03;;;;;;;35.95;6.13;;;;;;;13.72;78.71;99521.56;4918917;29;20048;-64
2023/03/09 08:44:31;;;;;;;38.35;6.90;;;;;;;13.76;79.10;99525.97;4916335;29;20058;-63
2023/03/09 08:46:58;;;;;;;35.22;6.43;;;;;;;13.79;78.40;99525.25;4918707;29;20055;-63
2023/03/09 08:49:26;;;;;;;37.47;7.00;;;;;;;13.77;78.41;99518.50;4903745;29;20408;-63
2023/03/09 08:51:53;;;;;;;31.45;5.70;;;;;;;13.92;78.38;99523.16;4916812;29;20404;-65
2023/03/09 08:54:20;;;;;;;42.00;7.30;;;;;;;13.68;78.79;99515.94;4903428;29;20059;-64
2023/03/09 08:56:48;;;;;;;33.83;6.50;;;;;;;13.71;78.75;99522.69;4915488;29;20051;-65
2023/03/09 08:59:15;;;;;;;37.47;6.45;;;;;;;13.70;78.94;99523.88;4919739;29;20044;-63
2023/03/09 09:01:42;;;;;;;36.80;6.88;;;;;;;13.97;77.79;99517.31;4919856;29;20055;-65
2023/03/09 09:04:10;;;;;;;37.42;7.05;;;;;;;14.07;76.80;99519.53;4918982;29;20052;-64
2023/03/09 09:06:37;;;;;;;36.15;6.47;;;;;;;14.09;77.36;99519.94;4917699;29;20076;-65
2023/03/09 09:09:05;;;;;;;35.08;6.10;;;;;;;14.36;76.43;99522.50;4919783;29;20155;-64
2023/03/09 09:11:32;;;;;;;34.33;7.13;;;;;;;13.98;77.03;99519.72;4916226;29;20051;-64
2023/03/09 09:13:59;;;;;;;40.17;8.00;;;;;;;14.13;76.50;99523.56;4916880;29;20059;-64
2023/03/09 09:16:29;;;;;;;43.17;8.10;;;;;;;14.11;76.69;99517.59;4905559;29;20397;-64
2023/03/09 09:18:57;;;;;;;42.90;7.28;;;;;;;14.06;77.03;99521.47;4916289;29;20052;-64
2023/03/09 09:21:24;;;;;;;35.22;6.53;;;;;;;14.23;76.78;99526.56;4891725;29;20053;-64
2023/03/09 09:23:52;;;;;;;39.05;6.75;;;;;;;14.17;76.68;99521.69;4881433;29;20516;-64
2023/03/09 09:26:19;;;;;;;38.30;6.80;;;;;;;14.09;76.80;99517.16;4880244;29;20068;-64
2023/03/09 09:28:46;;;;;;;41.22;6.65;;;;;;;14.18;77.02;99514.97;4896849;29;20053;-67
2023/03/09 09:31:18;;;;;;;37.20;6.80;;;;;;;14.77;74.10;99506.19;4878916;29;20438;-64
2023/03/09 09:33:47;;;;;;;38.08;6.30;;;;;;;14.57;74.52;99500.69;4889325;29;20065;-64
2023/03/09 09:36:17;;;;;;;38.65;6.85;;;;;;;14.63;73.91;99506.72;4879485;29;20061;-64
2023/03/09 09:38:45;;;;;;;40.17;6.90;;;;;;;14.53;74.41;99502.63;4883045;29;20053;-65
2023/03/09 09:41:27;;;;;;;38.72;6.05;;;;;;;14.58;74.39;99498.72;4882454;29;20053;-65
2023/03/09 09:43:58;;;;;;;42.60;10.63;;;;;;;14.69;74.12;99502.50;4878703;29;20045;-65
2023/03/09 09:46:28;;;;;;;46.83;9.20;;;;;;;14.73;73.85;99508.09;4876561;29;20049;-64
2023/03/09 09:48:56;;;;;;;38.63;7.63;;;;;;;14.57;74.61;99511.78;4878000;29;20064;-64
2023/03/09 09:51:41;;;;;;;;;;;;;;;14.80;73.29;99511.00;4893862;29;20059;-64
2023/03/09 09:54:24;;;;;;;38.60;6.82;;;;;;;15.02;72.87;99494.34;4881886;29;19923;-65
2023/03/09 09:56:55;;;;;;;49.05;7.70;;;;;;;15.03;72.14;99498.69;4881680;29;20065;-64
2023/03/09 09:59:41;;;;;;;44.60;7.57;;;;;;;15.01;71.45;99500.25;4876862;29;20064;-64
2023/03/09 10:02:08;;;;;;;38.97;7.25;;;;;;;15.02;71.82;99496.28;4878950;29;20057;-64
2023/03/09 10:04:41;;;;;;;44.22;6.88;;;;;;;15.02;71.59;99494.34;4881914;29;20052;-64
2023/03/09 10:07:16;;;;;;;31.70;6.10;;;;;;;14.93;72.19;99492.97;4878422;29;20053;-65
2023/03/09 10:09:49;;;;;;;30.08;5.65;;;;;;;15.01;71.89;99498.25;4881334;29;20428;-63
2023/03/09 10:12:20;;;;;;;39.25;7.30;;;;;;;14.99;72.01;99502.59;4879424;29;20057;-64
2023/03/09 10:14:50;;;;;;;40.50;7.82;;;;;;;15.40;70.68;99488.59;4877373;29;20493;-65
2023/03/09 10:17:21;;;;;;;35.55;6.22;;;;;;;15.39;70.13;99492.53;4862986;29;20068;-64
2023/03/09 10:19:50;;;;;;;39.00;6.82;;;;;;;15.54;70.25;99487.97;4889872;29;20052;-65
2023/03/09 10:22:22;;;;;;;39.38;6.43;;;;;;;15.85;69.22;99495.13;4897439;29;20059;-65
2023/03/09 10:24:52;;;;;;;35.08;6.40;;;;;;;16.00;67.33;99489.38;4918605;29;20044;-65
2023/03/09 10:27:35;;;;;;;29.75;6.22;;;;;;;15.87;67.66;99484.44;4899497;29;20051;-66
2023/03/09 10:30:24;;;;;;;34.80;6.00;;;;;;;16.11;66.67;99483.94;4919779;29;20122;-65
2023/03/09 10:32:57;;;;;;;47.42;6.63;;;;;;;16.03;66.36;99494.16;4903628;29;20496;-64
2023/03/09 10:35:36;;;;;;;37.78;5.50;;;;;;;15.68;66.66;99479.84;4902418;29;20809;-65
2023/03/09 10:38:03;;;;;;;36.03;6.80;;;;;;;15.94;66.57;99465.06;4900335;29;20060;-66
2023/03/09 10:40:37;;;;;;;28.85;6.95;;;;;;;15.64;65.84;99476.22;4918345;29;20424;-66
2023/03/09 10:43:04;;;;;;;35.20;8.50;;;;;;;15.81;65.97;99485.97;4902473;29;20040;-66
2023/03/09 10:45:32;;;;;;;46.13;8.20;;;;;;;15.97;65.65;99470.66;4915785;29;20052;-65
2023/03/09 10:48:04;;;;;;;34.40;5.97;;;;;;;16.32;64.52;99475.84;4916698;29;20063;-64
2023/03/09 10:50:31;;;;;;;37.15;7.00;;;;;;;16.47;62.98;99467.28;4897631;29;20056;-64
2023/03/09 10:53:21;;;;;;;31.55;6.32;;;;;;;16.35;62.63;99475.06;4915183;29;20052;-65
2023/03/09 10:55:48;;;;;;;40.17;6.90;;;;;;;16.41;63.81;99468.78;4899575;29;20074;-55
2023/03/09 10:58:29;;;;;;;111.72;11.07;;;;;;;16.70;62.17;99462.31;4903649;29;20063;-68
2023/03/09 11:01:20;;;;;;;32.97;6.38;;;;;;;16.35;62.17;99453.63;4914862;29;20060;-67
2023/03/09 11:03:48;;;;;;;43.63;7.55;;;;;;;16.55;61.88;99451.44;4901599;29;20056;-66
2023/03/09 11:06:15;;;;;;;46.55;7.15;;;;;;;16.46;61.65;99450.94;4920392;29;20048;-66
2023/03/09 11:08:44;;;;;;;64.13;8.65;;;;;;;16.49;61.17;99447.44;4917046;29;20056;-67
2023/03/09 11:11:30;;;;;;;45.08;6.28;;;;;;;16.12;62.56;99457.75;4914971;29;20067;-66
2023/03/09 11:13:58;;;;;;;37.33;7.40;;;;;;;16.38;62.08;99446.50;4919380;29;20068;-66
2023/03/09 11:16:34;;;;;;;32.53;6.50;;;;;;;16.01;62.66;99460.41;4917667;29;20051;-65
2023/03/09 11:19:05;;;;;;;49.28;18.50;;;;;;;15.88;63.05;99458.28;4918071;29;20408;-66
2023/03/09 11:21:33;;;;;;;43.97;10.35;;;;;;;16.03;62.67;99460.03;4917432;29;20060;-65
2023/03/09 11:24:02;;;;;;;37.97;8.60;;;;;;;15.61;63.30;99460.31;4918030;29;20050;-67
2023/03/09 11:26:54;;;;;;;39.47;8.00;;;;;;;15.83;63.29;99459.41;4913745;29;20066;-66
2023/03/09 11:29:40;;;;;;;33.47;7.78;;;;;;;15.98;63.26;99457.59;4897131;29;20059;-70
2023/03/09 11:32:10;;;;;;;36.78;7.60;;;;;;;16.26;61.67;99455.94;4917463;29;20052;-67
2023/03/09 11:34:43;;;;;;;34.03;6.80;;;;;;;16.37;61.74;99450.47;4902714;29;20056;-68
2023/03/09 11:37:34;;;;;;;34.70;7.90;;;;;;;16.62;61.45;99445.94;4918277;29;20056;-66
2023/03/09 11:40:10;;;;;;;36.38;9.82;;;;;;;16.48;61.64;99443.84;4918750;29;20056;-67